sensor_id;sensor_type;location;lat;lon;timestamp;pressure;altitude;pressure_sealevel;temperature;humidity
64876;BME280;51369;49.862;9.908;2023-02-03T00:01:47;99287.72;;;7.95;78.69
64876;BME280;51369;49.862;9.908;2023-02-03T00:04:13;99290.41;;;7.95;79.45
64876;BME280;51369;49.862;9.908;2023-02-03T00:06:39;99288.59;;;7.96;78.99
64876;BME280;51369;49.862;9.908;2023-02-03T00:09:04;99283.22;;;7.96;79.39
64876;BME280;51369;49.862;9.908;2023-02-03T00:11:30;99283.22;;;7.96;79.38
64876;BME280;51369;49.862;9.908;2023-02-03T00:13:56;99285.91;;;7.96;79.38
64876;BME280;51369;49.862;9.908;2023-02-03T00:16:21;99285.00;;;7.97;79.07
64876;BME280;51369;49.862;9.908;2023-02-03T00:18:47;99284.06;;;7.99;79.68
64876;BME280;51369;49.862;9.908;2023-02-03T00:21:12;99274.25;;;7.97;79.55
64876;BME280;51369;49.862;9.908;2023-02-03T00:23:40;99290.38;;;7.97;79.69
64876;BME280;51369;49.862;9.908;2023-02-03T00:26:07;99299.31;;;7.97;79.41
64876;BME280;51369;49.862;9.908;2023-02-03T00:28:32;99290.34;;;7.98;79.92
64876;BME280;51369;49.862;9.908;2023-02-03T00:30:58;99280.47;;;7.99;79.59
64876;BME280;51369;49.862;9.908;2023-02-03T00:33:23;99270.59;;;8.01;79.76
64876;BME280;51369;49.862;9.908;2023-02-03T00:35:49;99257.16;;;7.99;79.51
64876;BME280;51369;49.862;9.908;2023-02-03T00:38:14;99252.66;;;8.01;79.16
64876;BME280;51369;49.862;9.908;2023-02-03T00:40:40;99253.53;;;8.02;78.58
64876;BME280;51369;49.862;9.908;2023-02-03T00:43:05;99261.56;;;8.03;78.85
64876;BME280;51369;49.862;9.908;2023-02-03T00:45:31;99255.25;;;8.06;79.14
64876;BME280;51369;49.862;9.908;2023-02-03T00:47:57;99253.44;;;8.06;78.93
64876;BME280;51369;49.862;9.908;2023-02-03T00:50:22;99261.47;;;8.08;78.91
64876;BME280;51369;49.862;9.908;2023-02-03T00:52:48;99256.09;;;8.08;79.30
64876;BME280;51369;49.862;9.908;2023-02-03T00:55:13;99262.38;;;8.08;78.95
64876;BME280;51369;49.862;9.908;2023-02-03T00:57:39;99259.66;;;8.10;78.78
64876;BME280;51369;49.862;9.908;2023-02-03T01:00:05;99263.19;;;8.12;78.84
64876;BME280;51369;49.862;9.908;2023-02-03T01:02:31;99264.94;;;8.14;78.96
64876;BME280;51369;49.862;9.908;2023-02-03T01:04:56;99267.59;;;8.16;79.30
64876;BME280;51369;49.862;9.908;2023-02-03T01:07:22;99275.63;;;8.19;78.44
64876;BME280;51369;49.862;9.908;2023-02-03T01:09:47;99272.00;;;8.20;78.48
64876;BME280;51369;49.862;9.908;2023-02-03T01:12:12;99278.25;;;8.22;78.53
64876;BME280;51369;49.862;9.908;2023-02-03T01:14:39;99269.25;;;8.23;78.39
64876;BME280;51369;49.862;9.908;2023-02-03T01:17:04;99276.41;;;8.26;78.74
64876;BME280;51369;49.862;9.908;2023-02-03T01:19:30;99279.03;;;8.29;78.37
64876;BME280;51369;49.862;9.908;2023-02-03T01:21:55;99268.22;;;8.32;78.20
64876;BME280;51369;49.862;9.908;2023-02-03T01:24:20;99261.91;;;8.34;78.42
64876;BME280;51369;49.862;9.908;2023-02-03T01:26:46;99247.53;;;8.35;78.99
64876;BME280;51369;49.862;9.908;2023-02-03T01:29:11;99251.16;;;8.34;78.61
64876;BME280;51369;49.862;9.908;2023-02-03T01:31:39;99241.25;;;8.36;78.59
64876;BME280;51369;49.862;9.908;2023-02-03T01:34:07;99233.13;;;8.38;78.72
64876;BME280;51369;49.862;9.908;2023-02-03T01:36:34;99226.88;;;8.37;78.42
64876;BME280;51369;49.862;9.908;2023-02-03T01:39:01;99206.19;;;8.39;78.14
64876;BME280;51369;49.862;9.908;2023-02-03T01:41:33;99208.88;;;8.39;77.99
64876;BME280;51369;49.862;9.908;2023-02-03T01:44:00;99205.28;;;8.40;78.67
64876;BME280;51369;49.862;9.908;2023-02-03T01:46:33;99211.53;;;8.41;78.20
64876;BME280;51369;49.862;9.908;2023-02-03T01:49:11;99192.72;;;8.41;78.51
64876;BME280;51369;49.862;9.908;2023-02-03T01:51:41;99178.31;;;8.43;78.09
64876;BME280;51369;49.862;9.908;2023-02-03T01:54:11;99196.25;;;8.43;78.46
64876;BME280;51369;49.862;9.908;2023-02-03T01:56:40;99208.84;;;8.41;78.33
64876;BME280;51369;49.862;9.908;2023-02-03T01:59:07;99216.03;;;8.40;78.31
64876;BME280;51369;49.862;9.908;2023-02-03T02:01:33;99218.75;;;8.39;78.20
64876;BME280;51369;49.862;9.908;2023-02-03T02:04:01;99220.56;;;8.38;78.57
64876;BME280;51369;49.862;9.908;2023-02-03T02:06:28;99201.75;;;8.37;78.21
64876;BME280;51369;49.862;9.908;2023-02-03T02:08:54;99197.34;;;8.34;77.87
64876;BME280;51369;49.862;9.908;2023-02-03T02:11:21;99196.44;;;8.32;78.34
64876;BME280;51369;49.862;9.908;2023-02-03T02:13:49;99205.44;;;8.31;78.60
64876;BME280;51369;49.862;9.908;2023-02-03T02:21:40;99200.19;;;8.25;78.62
64876;BME280;51369;49.862;9.908;2023-02-03T02:43:43;99191.06;;;8.32;77.83
64876;BME280;51369;49.862;9.908;2023-02-03T02:46:18;99190.19;;;8.33;78.36
64876;BME280;51369;49.862;9.908;2023-02-03T02:51:24;99207.13;;;8.38;78.44
64876;BME280;51369;49.862;9.908;2023-02-03T02:53:56;99195.47;;;8.38;78.41
64876;BME280;51369;49.862;9.908;2023-02-03T02:56:24;99186.47;;;8.39;78.43
64876;BME280;51369;49.862;9.908;2023-02-03T02:58:52;99181.06;;;8.40;78.69
64876;BME280;51369;49.862;9.908;2023-02-03T03:01:20;99187.34;;;8.41;78.55
64876;BME280;51369;49.862;9.908;2023-02-03T03:03:45;99206.13;;;8.42;78.57
64876;BME280;51369;49.862;9.908;2023-02-03T03:06:22;99207.91;;;8.43;78.10
64876;BME280;51369;49.862;9.908;2023-02-03T03:08:53;99201.59;;;8.44;78.26
64876;BME280;51369;49.862;9.908;2023-02-03T03:11:23;99199.81;;;8.45;77.72
64876;BME280;51369;49.862;9.908;2023-02-03T03:13:52;99188.13;;;8.46;78.16
64876;BME280;51369;49.862;9.908;2023-02-03T03:16:22;99194.38;;;8.46;78.07
64876;BME280;51369;49.862;9.908;2023-02-03T03:18:53;99211.44;;;8.45;78.00
64876;BME280;51369;49.862;9.908;2023-02-03T03:21:24;99207.00;;;8.44;78.16
64876;BME280;51369;49.862;9.908;2023-02-03T03:23:53;99206.06;;;8.45;78.21
64876;BME280;51369;49.862;9.908;2023-02-03T03:26:42;99201.66;;;8.41;78.06
64876;BME280;51369;49.862;9.908;2023-02-03T03:29:18;99198.97;;;8.41;78.62
64876;BME280;51369;49.862;9.908;2023-02-03T03:31:45;99194.47;;;8.42;78.98
64876;BME280;51369;49.862;9.908;2023-02-03T03:34:11;99199.91;;;8.40;78.10
64876;BME280;51369;49.862;9.908;2023-02-03T03:36:43;99200.81;;;8.39;77.88
64876;BME280;51369;49.862;9.908;2023-02-03T03:39:14;99195.47;;;8.38;78.04
64876;BME280;51369;49.862;9.908;2023-02-03T03:42:25;99205.38;;;8.36;78.54
64876;BME280;51369;49.862;9.908;2023-02-03T03:45:06;99203.63;;;8.33;78.80
64876;BME280;51369;49.862;9.908;2023-02-03T03:47:38;99200.06;;;8.33;78.44
64876;BME280;51369;49.862;9.908;2023-02-03T03:50:07;99193.75;;;8.32;78.41
64876;BME280;51369;49.862;9.908;2023-02-03T03:52:34;99186.59;;;8.31;78.69
64876;BME280;51369;49.862;9.908;2023-02-03T03:55:05;99172.28;;;8.29;79.21
64876;BME280;51369;49.862;9.908;2023-02-03T03:57:45;99175.03;;;8.26;79.04
64876;BME280;51369;49.862;9.908;2023-02-03T04:00:16;99182.19;;;8.27;78.87
64876;BME280;51369;49.862;9.908;2023-02-03T04:02:47;99175.97;;;8.25;78.89
64876;BME280;51369;49.862;9.908;2023-02-03T04:05:15;99175.06;;;8.25;79.71
64876;BME280;51369;49.862;9.908;2023-02-03T04:07:43;99178.69;;;8.24;79.41
64876;BME280;51369;49.862;9.908;2023-02-03T04:10:34;99186.78;;;8.22;78.82
64876;BME280;51369;49.862;9.908;2023-02-03T04:13:01;99175.09;;;8.23;79.72
64876;BME280;51369;49.862;9.908;2023-02-03T04:15:28;99175.09;;;8.23;79.98
64876;BME280;51369;49.862;9.908;2023-02-03T04:17:53;99186.78;;;8.22;79.44
64876;BME280;51369;49.862;9.908;2023-02-03T04:20:21;99167.97;;;8.22;80.17
64876;BME280;51369;49.862;9.908;2023-02-03T04:22:47;99168.00;;;8.21;79.91
64876;BME280;51369;49.862;9.908;2023-02-03T04:25:13;99168.00;;;8.21;80.00
64876;BME280;51369;49.862;9.908;2023-02-03T04:27:38;99153.66;;;8.20;79.92
64876;BME280;51369;49.862;9.908;2023-02-03T04:30:04;99151.88;;;8.19;79.16
64876;BME280;51369;49.862;9.908;2023-02-03T04:32:30;99157.25;;;8.19;79.69
64876;BME280;51369;49.862;9.908;2023-02-03T04:34:56;99170.72;;;8.19;80.07
64876;BME280;51369;49.862;9.908;2023-02-03T04:37:23;99183.28;;;8.19;80.13
64876;BME280;51369;49.862;9.908;2023-02-03T04:39:51;99192.22;;;8.19;79.70
64876;BME280;51369;49.862;9.908;2023-02-03T04:42:17;99202.09;;;8.19;80.28
64876;BME280;51369;49.862;9.908;2023-02-03T04:44:43;99194.91;;;8.19;80.47
64876;BME280;51369;49.862;9.908;2023-02-03T04:47:08;99192.22;;;8.19;79.81
64876;BME280;51369;49.862;9.908;2023-02-03T04:49:33;99185.03;;;8.20;80.05
64876;BME280;51369;49.862;9.908;2023-02-03T04:51:59;99176.09;;;8.19;80.36
64876;BME280;51369;49.862;9.908;2023-02-03T04:54:24;99177.00;;;8.18;80.70
64876;BME280;51369;49.862;9.908;2023-02-03T04:56:50;99181.50;;;8.18;80.83
64876;BME280;51369;49.862;9.908;2023-02-03T04:59:15;99177.06;;;8.15;80.04
64876;BME280;51369;49.862;9.908;2023-02-03T05:01:40;99161.81;;;8.15;80.86
64876;BME280;51369;49.862;9.908;2023-02-03T05:04:06;99169.91;;;8.14;80.12
64876;BME280;51369;49.862;9.908;2023-02-03T05:06:32;99188.75;;;8.14;80.51
64876;BME280;51369;49.862;9.908;2023-02-03T05:08:58;99185.13;;;8.15;80.81
64876;BME280;51369;49.862;9.908;2023-02-03T05:11:23;99175.25;;;8.15;80.60
64876;BME280;51369;49.862;9.908;2023-02-03T05:13:49;99184.25;;;8.14;80.85
64876;BME280;51369;49.862;9.908;2023-02-03T05:16:15;99181.56;;;8.14;80.71
64876;BME280;51369;49.862;9.908;2023-02-03T05:18:40;99177.97;;;8.15;80.47
64876;BME280;51369;49.862;9.908;2023-02-03T05:21:06;99165.38;;;8.16;80.77
64876;BME280;51369;49.862;9.908;2023-02-03T05:23:32;99156.41;;;8.17;80.12
64876;BME280;51369;49.862;9.908;2023-02-03T05:25:57;99155.47;;;8.18;79.83
64876;BME280;51369;49.862;9.908;2023-02-03T05:28:23;99150.09;;;8.18;80.37
64876;BME280;51369;49.862;9.908;2023-02-03T05:30:48;99146.50;;;8.19;79.61
64876;BME280;51369;49.862;9.908;2023-02-03T05:33:14;99140.22;;;8.19;79.59
64876;BME280;51369;49.862;9.908;2023-02-03T05:35:39;99152.75;;;8.20;79.24
64876;BME280;51369;49.862;9.908;2023-02-03T05:38:04;99155.44;;;8.21;80.40
64876;BME280;51369;49.862;9.908;2023-02-03T05:40:30;99155.44;;;8.21;79.89
64876;BME280;51369;49.862;9.908;2023-02-03T05:43:14;99150.94;;;8.22;79.86
64876;BME280;51369;49.862;9.908;2023-02-03T05:45:40;99153.59;;;8.23;79.68
64876;BME280;51369;49.862;9.908;2023-02-03T05:48:05;99144.66;;;8.21;79.81
64876;BME280;51369;49.862;9.908;2023-02-03T05:50:34;99141.06;;;8.22;80.46
64876;BME280;51369;49.862;9.908;2023-02-03T05:53:06;99131.19;;;8.23;80.16
64876;BME280;51369;49.862;9.908;2023-02-03T05:55:32;99126.69;;;8.23;80.08
64876;BME280;51369;49.862;9.908;2023-02-03T05:57:58;99121.34;;;8.22;80.34
64876;BME280;51369;49.862;9.908;2023-02-03T06:00:25;99125.88;;;8.20;80.16
64876;BME280;51369;49.862;9.908;2023-02-03T06:02:52;99122.28;;;8.19;80.17
64876;BME280;51369;49.862;9.908;2023-02-03T06:05:19;99124.97;;;8.19;80.52
64876;BME280;51369;49.862;9.908;2023-02-03T06:07:45;99116.03;;;8.19;80.71
64876;BME280;51369;49.862;9.908;2023-02-03T06:10:10;99127.69;;;8.18;80.81
64876;BME280;51369;49.862;9.908;2023-02-03T06:12:39;99133.09;;;8.18;80.04
64876;BME280;51369;49.862;9.908;2023-02-03T06:15:04;99121.41;;;8.19;80.52
64876;BME280;51369;49.862;9.908;2023-02-03T06:17:30;99128.59;;;8.18;80.50
64876;BME280;51369;49.862;9.908;2023-02-03T06:19:56;99125.88;;;8.20;80.70
64876;BME280;51369;49.862;9.908;2023-02-03T06:22:21;99134.84;;;8.19;80.21
64876;BME280;51369;49.862;9.908;2023-02-03T06:24:47;99127.66;;;8.19;79.83
64876;BME280;51369;49.862;9.908;2023-02-03T06:27:15;99111.53;;;8.19;79.54
64876;BME280;51369;49.862;9.908;2023-02-03T06:29:41;99104.34;;;8.20;79.77
64876;BME280;51369;49.862;9.908;2023-02-03T06:32:07;99109.72;;;8.20;79.95
64876;BME280;51369;49.862;9.908;2023-02-03T06:34:33;99091.84;;;8.17;80.42
64876;BME280;51369;49.862;9.908;2023-02-03T06:36:59;99078.41;;;8.17;79.99
64876;BME280;51369;49.862;9.908;2023-02-03T06:39:24;99067.63;;;8.17;79.58
64876;BME280;51369;49.862;9.908;2023-02-03T06:41:50;99072.13;;;8.16;79.60
64876;BME280;51369;49.862;9.908;2023-02-03T06:44:20;99072.13;;;8.16;78.94
64876;BME280;51369;49.862;9.908;2023-02-03T06:46:45;99085.53;;;8.18;79.55
64876;BME280;51369;49.862;9.908;2023-02-03T06:49:10;99084.63;;;8.19;79.67
64876;BME280;51369;49.862;9.908;2023-02-03T06:51:36;99083.72;;;8.20;79.23
64876;BME280;51369;49.862;9.908;2023-02-03T06:54:02;99098.94;;;8.21;79.20
64876;BME280;51369;49.862;9.908;2023-02-03T06:56:28;99104.25;;;8.24;79.60
64876;BME280;51369;49.862;9.908;2023-02-03T06:58:54;99105.09;;;8.26;79.54
64876;BME280;51369;49.862;9.908;2023-02-03T07:01:20;99122.09;;;8.28;79.51
64876;BME280;51369;49.862;9.908;2023-02-03T07:03:46;99119.38;;;8.30;79.30
64876;BME280;51369;49.862;9.908;2023-02-03T07:06:12;99131.88;;;8.32;78.93
64876;BME280;51369;49.862;9.908;2023-02-03T07:08:38;99133.69;;;8.33;78.91
64876;BME280;51369;49.862;9.908;2023-02-03T07:11:03;99130.94;;;8.35;79.46
64876;BME280;51369;49.862;9.908;2023-02-03T07:13:29;99126.41;;;8.37;78.59
64876;BME280;51369;49.862;9.908;2023-02-03T07:15:54;99131.75;;;8.40;79.34
64876;BME280;51369;49.862;9.908;2023-02-03T07:18:19;99116.47;;;8.40;78.72
64876;BME280;51369;49.862;9.908;2023-02-03T07:20:49;99130.75;;;8.44;78.66
64876;BME280;51369;49.862;9.908;2023-02-03T07:23:14;99151.41;;;8.43;78.53
64876;BME280;51369;49.862;9.908;2023-02-03T07:25:40;99147.78;;;8.44;78.41
64876;BME280;51369;49.862;9.908;2023-02-03T07:28:05;99145.94;;;8.46;78.98
64876;BME280;51369;49.862;9.908;2023-02-03T07:30:30;99136.97;;;8.46;78.72
64876;BME280;51369;49.862;9.908;2023-02-03T07:32:56;99137.84;;;8.48;79.09
64876;BME280;51369;49.862;9.908;2023-02-03T07:35:21;99118.97;;;8.50;78.67
64876;BME280;51369;49.862;9.908;2023-02-03T07:37:46;99113.59;;;8.50;78.27
64876;BME280;51369;49.862;9.908;2023-02-03T07:40:13;99127.06;;;8.48;78.30
64876;BME280;51369;49.862;9.908;2023-02-03T07:42:43;99122.50;;;8.52;77.92
64876;BME280;51369;49.862;9.908;2023-02-03T07:45:09;99141.31;;;8.53;78.37
64876;BME280;51369;49.862;9.908;2023-02-03T07:47:35;99146.66;;;8.55;78.01
64876;BME280;51369;49.862;9.908;2023-02-03T07:50:01;99133.19;;;8.55;78.68
64876;BME280;51369;49.862;9.908;2023-02-03T07:52:26;99138.50;;;8.58;78.61
64876;BME280;51369;49.862;9.908;2023-02-03T07:54:52;99126.81;;;8.59;78.64
64876;BME280;51369;49.862;9.908;2023-02-03T07:57:17;99133.03;;;8.62;77.72
64876;BME280;51369;49.862;9.908;2023-02-03T07:59:42;99122.22;;;8.64;78.22
64876;BME280;51369;49.862;9.908;2023-02-03T08:02:09;99134.66;;;8.68;78.04
64876;BME280;51369;49.862;9.908;2023-02-03T08:04:35;99126.50;;;8.71;78.28
64876;BME280;51369;49.862;9.908;2023-02-03T08:07:01;99121.97;;;8.73;77.59
64876;BME280;51369;49.862;9.908;2023-02-03T08:09:26;99120.13;;;8.75;77.54
64876;BME280;51369;49.862;9.908;2023-02-03T08:11:52;99112.03;;;8.76;77.48
64876;BME280;51369;49.862;9.908;2023-02-03T08:14:17;99117.38;;;8.78;78.07
64876;BME280;51369;49.862;9.908;2023-02-03T08:16:42;99122.72;;;8.79;77.19
64876;BME280;51369;49.862;9.908;2023-02-03T08:19:09;99109.22;;;8.81;77.97
64876;BME280;51369;49.862;9.908;2023-02-03T08:21:34;99134.28;;;8.85;77.71
64876;BME280;51369;49.862;9.908;2023-02-03T08:24:00;99124.34;;;8.87;77.45
64876;BME280;51369;49.862;9.908;2023-02-03T08:26:25;99144.03;;;8.89;77.39
64876;BME280;51369;49.862;9.908;2023-02-03T08:28:50;99137.69;;;8.91;76.96
64876;BME280;51369;49.862;9.908;2023-02-03T08:31:16;99134.94;;;8.94;77.00
64876;BME280;51369;49.862;9.908;2023-02-03T08:33:42;99134.91;;;8.96;77.47
64876;BME280;51369;49.862;9.908;2023-02-03T08:36:07;99115.97;;;8.99;77.84
64876;BME280;51369;49.862;9.908;2023-02-03T08:38:33;99126.72;;;9.00;77.31
64876;BME280;51369;49.862;9.908;2023-02-03T08:40:58;99119.47;;;9.02;77.44
64876;BME280;51369;49.862;9.908;2023-02-03T08:43:24;99115.06;;;9.00;77.10
64876;BME280;51369;49.862;9.908;2023-02-03T08:45:49;99115.91;;;9.02;76.91
64876;BME280;51369;49.862;9.908;2023-02-03T08:48:15;99124.88;;;9.02;77.11
64876;BME280;51369;49.862;9.908;2023-02-03T08:50:41;99115.81;;;9.05;76.88
64876;BME280;51369;49.862;9.908;2023-02-03T08:53:08;99113.13;;;9.05;76.89
64876;BME280;51369;49.862;9.908;2023-02-03T08:55:37;99109.47;;;9.07;77.78
64876;BME280;51369;49.862;9.908;2023-02-03T08:58:03;99110.28;;;9.11;77.23
64876;BME280;51369;49.862;9.908;2023-02-03T09:00:28;99104.81;;;9.14;76.76
64876;BME280;51369;49.862;9.908;2023-02-03T09:02:53;99108.28;;;9.19;77.05
64876;BME280;51369;49.862;9.908;2023-02-03T09:05:19;99095.53;;;9.26;77.44
64876;BME280;51369;49.862;9.908;2023-02-03T09:07:45;99094.44;;;9.33;76.98
64876;BME280;51369;49.862;9.908;2023-02-03T09:10:10;99093.41;;;9.38;76.26
64876;BME280;51369;49.862;9.908;2023-02-03T09:12:35;99119.34;;;9.42;77.00
64876;BME280;51369;49.862;9.908;2023-02-03T09:15:01;99106.63;;;9.48;76.06
64876;BME280;51369;49.862;9.908;2023-02-03T09:17:26;99105.66;;;9.50;75.92
64876;BME280;51369;49.862;9.908;2023-02-03T09:19:52;99104.75;;;9.51;76.59
64876;BME280;51369;49.862;9.908;2023-02-03T09:22:18;99101.97;;;9.54;76.22
64876;BME280;51369;49.862;9.908;2023-02-03T09:24:43;99100.13;;;9.56;76.07
64876;BME280;51369;49.862;9.908;2023-02-03T09:27:08;99081.25;;;9.56;75.96
64876;BME280;51369;49.862;9.908;2023-02-03T09:29:35;99078.59;;;9.55;75.72
64876;BME280;51369;49.862;9.908;2023-02-03T09:32:00;99097.41;;;9.56;76.02
64876;BME280;51369;49.862;9.908;2023-02-03T09:34:31;99095.66;;;9.55;75.13
64876;BME280;51369;49.862;9.908;2023-02-03T09:36:56;99115.41;;;9.56;75.68
64876;BME280;51369;49.862;9.908;2023-02-03T09:39:22;99104.59;;;9.57;75.37
64876;BME280;51369;49.862;9.908;2023-02-03T09:44:48;99118.94;;;9.58;75.40
64876;BME280;51369;49.862;9.908;2023-02-03T09:47:22;99115.31;;;9.59;75.04
64876;BME280;51369;49.862;9.908;2023-02-03T09:49:52;99100.03;;;9.59;75.54
64876;BME280;51369;49.862;9.908;2023-02-03T09:52:22;99101.81;;;9.60;75.99
64876;BME280;51369;49.862;9.908;2023-02-03T09:54:59;99098.13;;;9.63;75.45
64876;BME280;51369;49.862;9.908;2023-02-03T09:57:27;99111.50;;;9.67;75.30
64876;BME280;51369;49.862;9.908;2023-02-03T09:59:56;99113.22;;;9.70;76.35
64876;BME280;51369;49.862;9.908;2023-02-03T10:03:02;99111.41;;;9.70;75.37
64876;BME280;51369;49.862;9.908;2023-02-03T10:08:22;99089.72;;;9.75;75.53
64876;BME280;51369;49.862;9.908;2023-02-03T10:11:10;99083.25;;;9.81;75.40
64876;BME280;51369;49.862;9.908;2023-02-03T10:19:37;99070.53;;;9.86;75.72
64876;BME280;51369;49.862;9.908;2023-02-03T10:22:10;99068.72;;;9.86;75.29
64876;BME280;51369;49.862;9.908;2023-02-03T10:27:21;99064.91;;;9.93;74.96
64876;BME280;51369;49.862;9.908;2023-02-03T10:30:21;99062.22;;;9.93;75.04
64876;BME280;51369;49.862;9.908;2023-02-03T10:32:53;99041.44;;;9.97;74.66
64876;BME280;51369;49.862;9.908;2023-02-03T10:35:22;99050.28;;;10.02;74.24
64876;BME280;51369;49.862;9.908;2023-02-03T10:37:50;99062.78;;;10.04;74.15
64876;BME280;51369;49.862;9.908;2023-02-03T10:40:19;99044.75;;;10.06;74.66
64876;BME280;51369;49.862;9.908;2023-02-03T10:42:47;99050.97;;;10.08;74.56
64876;BME280;51369;49.862;9.908;2023-02-03T10:45:36;99035.63;;;10.10;74.83
64876;BME280;51369;49.862;9.908;2023-02-03T10:48:03;99046.38;;;10.12;74.03
64876;BME280;51369;49.862;9.908;2023-02-03T10:50:29;99041.81;;;10.14;74.45
64876;BME280;51369;49.862;9.908;2023-02-03T10:55:51;99042.53;;;10.21;74.35
64876;BME280;51369;49.862;9.908;2023-02-03T10:58:26;99032.59;;;10.23;74.51
64876;BME280;51369;49.862;9.908;2023-02-03T11:01:11;99026.25;;;10.24;75.22
64876;BME280;51369;49.862;9.908;2023-02-03T11:03:41;99016.28;;;10.26;74.46
64876;BME280;51369;49.862;9.908;2023-02-03T11:06:13;98993.72;;;10.28;74.30
64876;BME280;51369;49.862;9.908;2023-02-03T11:08:42;99001.72;;;10.31;74.16
64876;BME280;51369;49.862;9.908;2023-02-03T11:11:13;99003.44;;;10.34;75.18
64876;BME280;51369;49.862;9.908;2023-02-03T11:13:39;98994.38;;;10.36;74.15
64876;BME280;51369;49.862;9.908;2023-02-03T11:16:13;98998.84;;;10.37;74.61
64876;BME280;51369;49.862;9.908;2023-02-03T11:21:17;98995.00;;;10.43;73.98
64876;BME280;51369;49.862;9.908;2023-02-03T11:23:51;98987.66;;;10.48;73.42
64876;BME280;51369;49.862;9.908;2023-02-03T11:26:28;99019.94;;;10.51;74.79
64876;BME280;51369;49.862;9.908;2023-02-03T11:28:57;98993.84;;;10.52;73.36
64876;BME280;51369;49.862;9.908;2023-02-03T11:31:30;98994.63;;;10.55;73.38
64876;BME280;51369;49.862;9.908;2023-02-03T11:33:59;99007.13;;;10.58;73.58
64876;BME280;51369;49.862;9.908;2023-02-03T11:36:28;99011.69;;;10.56;72.63
64876;BME280;51369;49.862;9.908;2023-02-03T11:39:15;98993.63;;;10.58;74.04
64876;BME280;51369;49.862;9.908;2023-02-03T11:41:42;99018.88;;;10.57;73.56
64876;BME280;51369;49.862;9.908;2023-02-03T11:44:16;99009.97;;;10.53;72.56
64876;BME280;51369;49.862;9.908;2023-02-03T11:46:43;98993.78;;;10.53;74.43
64876;BME280;51369;49.862;9.908;2023-02-03T11:49:53;98999.34;;;10.49;73.69
64876;BME280;51369;49.862;9.908;2023-02-03T11:52:44;99010.97;;;10.51;74.27
64876;BME280;51369;49.862;9.908;2023-02-03T11:58:53;98966.84;;;10.52;73.72
64876;BME280;51369;49.862;9.908;2023-02-03T12:09:21;98963.59;;;10.40;72.74
64876;BME280;51369;49.862;9.908;2023-02-03T12:12:17;98968.16;;;10.40;73.92
64876;BME280;51369;49.862;9.908;2023-02-03T12:14:59;98955.63;;;10.37;74.12
64876;BME280;51369;49.862;9.908;2023-02-03T12:20:14;98928.75;;;10.34;73.45
64876;BME280;51369;49.862;9.908;2023-02-03T12:22:54;98946.81;;;10.32;75.35
64876;BME280;51369;49.862;9.908;2023-02-03T12:26:04;98920.84;;;10.28;74.24
64876;BME280;51369;49.862;9.908;2023-02-03T12:28:48;98915.31;;;10.33;73.91
64876;BME280;51369;49.862;9.908;2023-02-03T12:31:36;98908.25;;;10.29;74.33
64876;BME280;51369;49.862;9.908;2023-02-03T12:36:49;98937.09;;;10.27;74.49
64876;BME280;51369;49.862;9.908;2023-02-03T12:39:43;98940.78;;;10.24;74.09
64876;BME280;51369;49.862;9.908;2023-02-03T12:42:21;98925.56;;;10.22;74.07
64876;BME280;51369;49.862;9.908;2023-02-03T12:45:00;98922.06;;;10.18;73.07
64876;BME280;51369;49.862;9.908;2023-02-03T12:49:59;98933.81;;;10.16;73.95
64876;BME280;51369;49.862;9.908;2023-02-03T12:52:41;98948.31;;;10.13;74.15
64876;BME280;51369;49.862;9.908;2023-02-03T12:57:43;98970.91;;;10.09;74.13
64876;BME280;51369;49.862;9.908;2023-02-03T13:00:33;98961.09;;;10.06;74.19
64876;BME280;51369;49.862;9.908;2023-02-03T13:03:15;98959.34;;;10.05;74.63
64876;BME280;51369;49.862;9.908;2023-02-03T13:06:06;98946.81;;;10.03;75.17
64876;BME280;51369;49.862;9.908;2023-02-03T13:08:43;98944.22;;;10.00;75.12
64876;BME280;51369;49.862;9.908;2023-02-03T13:11:18;98942.56;;;9.96;75.33
64876;BME280;51369;49.862;9.908;2023-02-03T13:13:49;98935.53;;;9.90;75.13
64876;BME280;51369;49.862;9.908;2023-02-03T13:16:22;98937.44;;;9.87;75.13
64876;BME280;51369;49.862;9.908;2023-02-03T13:18:52;98932.13;;;9.84;75.13
64876;BME280;51369;49.862;9.908;2023-02-03T13:21:20;98929.59;;;9.79;76.09
64876;BME280;51369;49.862;9.908;2023-02-03T13:23:46;98912.63;;;9.75;75.33
64876;BME280;51369;49.862;9.908;2023-02-03T13:26:41;98910.91;;;9.73;76.01
64876;BME280;51369;49.862;9.908;2023-02-03T13:29:28;98917.31;;;9.69;76.57
64876;BME280;51369;49.862;9.908;2023-02-03T13:32:19;98913.78;;;9.67;75.82
64876;BME280;51369;49.862;9.908;2023-02-03T13:40:33;98904.03;;;9.63;76.62
64876;BME280;51369;49.862;9.908;2023-02-03T13:43:05;98920.19;;;9.63;76.71
64876;BME280;51369;49.862;9.908;2023-02-03T13:45:40;98909.47;;;9.61;76.42
64876;BME280;51369;49.862;9.908;2023-02-03T13:48:15;98890.63;;;9.60;77.63
64876;BME280;51369;49.862;9.908;2023-02-03T13:50:43;98905.00;;;9.60;77.26
64876;BME280;51369;49.862;9.908;2023-02-03T13:53:20;98880.88;;;9.56;76.69
64876;BME280;51369;49.862;9.908;2023-02-03T13:55:58;98896.22;;;9.54;77.06
64876;BME280;51369;49.862;9.908;2023-02-03T13:58:30;98880.97;;;9.53;77.03
64876;BME280;51369;49.862;9.908;2023-02-03T14:05:51;98905.38;;;9.48;77.37
64876;BME280;51369;49.862;9.908;2023-02-03T14:21:59;98899.41;;;9.37;77.75
64876;BME280;51369;49.862;9.908;2023-02-03T14:24:31;98903.03;;;9.36;77.83
64876;BME280;51369;49.862;9.908;2023-02-03T14:26:58;98883.31;;;9.34;78.48
64876;BME280;51369;49.862;9.908;2023-02-03T14:29:30;98907.63;;;9.32;78.53
64876;BME280;51369;49.862;9.908;2023-02-03T14:31:59;98913.00;;;9.32;77.51
64876;BME280;51369;49.862;9.908;2023-02-03T14:34:41;98914.00;;;9.30;78.49
64876;BME280;51369;49.862;9.908;2023-02-03T14:37:20;98933.78;;;9.29;78.53
64876;BME280;51369;49.862;9.908;2023-02-03T14:40:29;98924.81;;;9.28;77.82
64876;BME280;51369;49.862;9.908;2023-02-03T14:43:26;98931.97;;;9.29;77.81
64876;BME280;51369;49.862;9.908;2023-02-03T14:51:24;98923.88;;;9.29;78.58
64876;BME280;51369;49.862;9.908;2023-02-03T14:59:36;98936.47;;;9.29;78.94
64876;BME280;51369;49.862;9.908;2023-02-03T15:02:09;98921.22;;;9.28;79.53
64876;BME280;51369;49.862;9.908;2023-02-03T15:04:35;98924.84;;;9.27;78.63
64876;BME280;51369;49.862;9.908;2023-02-03T15:07:01;98920.34;;;9.27;79.71
64876;BME280;51369;49.862;9.908;2023-02-03T15:09:42;98941.06;;;9.25;79.29